PWSweather.com
Personal Weather Stations
Station Observations
AS787
Cloppers Mill East, Germantown, MD 20874-2154

Cloppers Mill EastGermantown, MD 20874-2154

Lat: 39.1522, Lon: -77.2679

Elevation: 318

Station Type: 1-Wire

http://www.cloppermillweather.org/

High Low Average
Temperature 34.1°F1.2°C 31.5°F-0.3°C 32.8°F0.4°C
Dew Point 32.0°F0.0°C 10.7°F-11.8°C 23.9°F-4.5°C
Winds 1.4 mph 2.3 kmh Calm Calm Calm SSWCalm SSW
Wind Gusts 6.0 mph9.7 kmh -- 1.0 mph1.6 kmh
Humidity 96% 38% 73%
Pressure 30.27 in1025.1 mb 29.74 in1007.1 mb -
Precipitation 0.00 in0.0 mm - -
Hour Temp Dew Point Humidity Winds Wind Gusts Pressure Precip Precip Rate Daily Precip Total
12:14 AM 32.9°F0.5°C 10.5°F-11.9°C 39% 0.4 mph SW0.6 kmh SW 2.0 mph3.2 kmh 30.29 in1025.7 mb 0.00 in0.0 mm 0.00 in0.0 mm 0.00 in0.0 mm
12:44 AM 32.8°F0.4°C 11.0°F-11.7°C 40% 0.6 mph SW1.0 kmh SW 5.0 mph8.0 kmh 30.28 in1025.4 mb 0.00 in0.0 mm 0.00 in0.0 mm 0.00 in0.0 mm
01:14 AM 33.2°F0.7°C 10.8°F-11.8°C 39% 1.4 mph SW2.3 kmh SW 3.0 mph4.8 kmh 30.27 in1025.1 mb 0.00 in0.0 mm 0.00 in0.0 mm 0.00 in0.0 mm
01:44 AM 33.6°F0.9°C 10.7°F-11.8°C 38% 0.1 mph WSW0.2 kmh WSW 5.0 mph8.0 kmh 30.27 in1025.1 mb 0.00 in0.0 mm 0.00 in0.0 mm 0.00 in0.0 mm
02:14 AM 33.9°F1.1°C 10.9°F-11.7°C 38% 0.5 mph SW0.8 kmh SW 6.0 mph9.7 kmh 30.27 in1025.1 mb 0.00 in0.0 mm 0.00 in0.0 mm 0.00 in0.0 mm
02:44 AM 34.1°F1.2°C 11.0°F-11.7°C 38% 0.6 mph SW1.0 kmh SW 3.0 mph4.8 kmh 30.27 in1025.1 mb 0.00 in0.0 mm 0.00 in0.0 mm 0.00 in0.0 mm
03:14 AM 34.1°F1.2°C 11.9°F-11.2°C 39% Calm Calm 2.0 mph3.2 kmh 30.25 in1024.4 mb 0.00 in0.0 mm 0.00 in0.0 mm 0.00 in0.0 mm
03:44 AM 34.0°F1.1°C 12.0°F-11.1°C 40% 0.2 mph SW0.3 kmh SW 4.0 mph6.4 kmh 30.25 in1024.4 mb 0.00 in0.0 mm 0.00 in0.0 mm 0.00 in0.0 mm
04:14 AM 34.0°F1.1°C 12.1°F-11.1°C 40% 1.1 mph SW1.8 kmh SW 3.0 mph4.8 kmh 30.24 in1024.0 mb 0.00 in0.0 mm 0.00 in0.0 mm 0.00 in0.0 mm
04:44 AM 33.9°F1.1°C 12.7°F-10.7°C 41% 0.4 mph WSW0.6 kmh WSW 2.0 mph3.2 kmh 30.22 in1023.4 mb 0.00 in0.0 mm 0.00 in0.0 mm 0.00 in0.0 mm
05:14 AM 33.4°F0.8°C 14.1°F-9.9°C 45% Calm Calm 1.0 mph1.6 kmh 30.20 in1022.7 mb 0.00 in0.0 mm 0.00 in0.0 mm 0.00 in0.0 mm
05:44 AM 32.8°F0.4°C 14.3°F-9.8°C 46% 0.5 mph WNW0.8 kmh WNW 3.0 mph4.8 kmh 30.18 in1022.0 mb 0.00 in0.0 mm 0.00 in0.0 mm 0.00 in0.0 mm
06:14 AM 32.2°F0.1°C 14.8°F-9.6°C 48% Calm Calm 2.0 mph3.2 kmh 30.18 in1022.0 mb 0.00 in0.0 mm 0.00 in0.0 mm 0.00 in0.0 mm
06:44 AM 32.1°F0.1°C 15.3°F-9.3°C 50% 0.0 mph WSW0.0 kmh WSW 2.0 mph3.2 kmh 30.18 in1022.0 mb 0.00 in0.0 mm 0.00 in0.0 mm 0.00 in0.0 mm
07:14 AM 32.2°F0.1°C 15.6°F-9.1°C 50% Calm Calm -- 30.19 in1022.4 mb 0.00 in0.0 mm 0.00 in0.0 mm 0.00 in0.0 mm
07:44 AM 32.3°F0.2°C 16.4°F-8.7°C 52% Calm Calm 1.0 mph1.6 kmh 30.18 in1022.0 mb 0.00 in0.0 mm 0.00 in0.0 mm 0.00 in0.0 mm
08:14 AM 32.6°F0.3°C 16.5°F-8.6°C 51% 0.7 mph SW1.1 kmh SW 6.0 mph9.7 kmh 30.16 in1021.3 mb 0.00 in0.0 mm 0.00 in0.0 mm 0.00 in0.0 mm
08:44 AM 32.6°F0.3°C 17.0°F-8.3°C 52% Calm Calm 3.0 mph4.8 kmh 30.16 in1021.3 mb 0.00 in0.0 mm 0.00 in0.0 mm 0.00 in0.0 mm
09:14 AM 32.9°F0.5°C 17.5°F-8.1°C 53% 0.4 mph SW0.6 kmh SW 2.0 mph3.2 kmh 30.16 in1021.3 mb 0.00 in0.0 mm 0.00 in0.0 mm 0.00 in0.0 mm
09:44 AM 33.3°F0.7°C 17.7°F-7.9°C 52% 0.2 mph SW0.3 kmh SW 1.0 mph1.6 kmh 30.16 in1021.3 mb 0.00 in0.0 mm 0.00 in0.0 mm 0.00 in0.0 mm
10:14 AM 33.6°F0.9°C 18.0°F-7.8°C 52% Calm Calm -- 30.16 in1021.3 mb 0.00 in0.0 mm 0.00 in0.0 mm 0.00 in0.0 mm
10:44 AM 34.0°F1.1°C 22.5°F-5.3°C 62% 0.1 mph SW0.2 kmh SW 6.0 mph9.7 kmh 30.14 in1020.7 mb 0.00 in0.0 mm 0.00 in0.0 mm 0.00 in0.0 mm
11:14 AM 32.5°F0.3°C 26.0°F-3.3°C 77% 1.1 mph SW1.8 kmh SW 5.0 mph8.0 kmh 30.13 in1020.3 mb 0.00 in0.0 mm 0.00 in0.0 mm 0.00 in0.0 mm
11:44 AM 31.7°F-0.2°C 26.9°F-2.8°C 82% Calm Calm 1.0 mph1.6 kmh 30.10 in1019.3 mb 0.00 in0.0 mm 0.00 in0.0 mm 0.00 in0.0 mm
12:14 PM 31.8°F-0.1°C 28.1°F-2.2°C 86% Calm Calm -- 30.08 in1018.6 mb 0.00 in0.0 mm 0.00 in0.0 mm 0.00 in0.0 mm
12:44 PM 31.9°F-0.1°C 28.8°F-1.8°C 88% Calm Calm -- 30.05 in1017.6 mb 0.00 in0.0 mm 0.00 in0.0 mm 0.00 in0.0 mm
01:14 PM 31.8°F-0.1°C 28.9°F-1.7°C 89% Calm Calm -- 30.02 in1016.6 mb 0.00 in0.0 mm 0.00 in0.0 mm 0.00 in0.0 mm
01:44 PM 31.7°F-0.2°C 28.9°F-1.7°C 89% Calm Calm -- 30.01 in1016.3 mb 0.00 in0.0 mm 0.00 in0.0 mm 0.00 in0.0 mm
02:14 PM 32.2°F0.1°C 29.9°F-1.2°C 91% Calm Calm -- 29.96 in1014.6 mb 0.00 in0.0 mm 0.00 in0.0 mm 0.00 in0.0 mm
02:44 PM 32.3°F0.2°C 30.2°F-1.0°C 92% Calm Calm -- 29.93 in1013.5 mb 0.00 in0.0 mm 0.00 in0.0 mm 0.00 in0.0 mm
03:14 PM 32.5°F0.3°C 30.7°F-0.7°C 93% Calm Calm -- 29.92 in1013.2 mb 0.00 in0.0 mm 0.00 in0.0 mm 0.00 in0.0 mm
03:44 PM 32.6°F0.3°C 30.8°F-0.7°C 93% Calm Calm -- 29.89 in1012.2 mb 0.00 in0.0 mm 0.00 in0.0 mm 0.00 in0.0 mm
04:14 PM 32.5°F0.3°C 31.0°F-0.6°C 94% Calm Calm -- 29.86 in1011.2 mb 0.00 in0.0 mm 0.00 in0.0 mm 0.00 in0.0 mm
04:44 PM 32.6°F0.3°C 31.1°F-0.5°C 94% Calm Calm -- 29.85 in1010.8 mb 0.00 in0.0 mm 0.00 in0.0 mm 0.00 in0.0 mm
05:14 PM 32.6°F0.3°C 31.1°F-0.5°C 94% Calm Calm -- 29.83 in1010.2 mb 0.00 in0.0 mm 0.00 in0.0 mm 0.00 in0.0 mm
05:44 PM 32.6°F0.3°C 31.3°F-0.4°C 95% Calm Calm -- 29.82 in1009.8 mb 0.00 in0.0 mm 0.00 in0.0 mm 0.00 in0.0 mm
06:14 PM 32.6°F0.3°C 31.3°F-0.4°C 95% Calm Calm -- 29.80 in1009.1 mb 0.00 in0.0 mm 0.00 in0.0 mm 0.00 in0.0 mm
06:44 PM 32.6°F0.3°C 31.3°F-0.4°C 95% Calm Calm -- 29.78 in1008.5 mb 0.00 in0.0 mm 0.00 in0.0 mm 0.00 in0.0 mm
07:14 PM 32.7°F0.4°C 31.4°F-0.3°C 95% Calm Calm -- 29.76 in1007.8 mb 0.00 in0.0 mm 0.00 in0.0 mm 0.00 in0.0 mm
07:44 PM 32.7°F0.4°C 31.4°F-0.3°C 95% Calm Calm -- 29.74 in1007.1 mb 0.00 in0.0 mm 0.00 in0.0 mm 0.00 in0.0 mm
08:14 PM 32.8°F0.4°C 31.8°F-0.1°C 96% Calm Calm -- 29.75 in1007.5 mb 0.00 in0.0 mm 0.00 in0.0 mm 0.00 in0.0 mm
08:44 PM 32.9°F0.5°C 31.9°F-0.1°C 96% Calm Calm -- 29.75 in1007.5 mb 0.00 in0.0 mm 0.00 in0.0 mm 0.00 in0.0 mm
09:14 PM 33.0°F0.6°C 32.0°F0.0°C 96% Calm Calm -- 29.75 in1007.5 mb 0.00 in0.0 mm 0.00 in0.0 mm 0.00 in0.0 mm
09:44 PM 33.0°F0.6°C 32.0°F0.0°C 96% Calm Calm -- 29.75 in1007.5 mb 0.00 in0.0 mm 0.00 in0.0 mm 0.00 in0.0 mm
10:14 PM 32.5°F0.3°C 31.5°F-0.3°C 96% Calm Calm -- 29.75 in1007.5 mb 0.00 in0.0 mm 0.00 in0.0 mm 0.00 in0.0 mm
10:44 PM 32.7°F0.4°C 31.7°F-0.2°C 96% Calm Calm -- 29.76 in1007.8 mb 0.00 in0.0 mm 0.00 in0.0 mm 0.00 in0.0 mm
11:14 PM 32.7°F0.4°C 31.7°F-0.2°C 96% Calm Calm -- 29.76 in1007.8 mb 0.00 in0.0 mm 0.00 in0.0 mm 0.00 in0.0 mm
11:44 PM 32.4°F0.2°C 31.4°F-0.3°C 96% Calm Calm -- 29.76 in1007.8 mb 0.00 in0.0 mm 0.00 in0.0 mm 0.00 in0.0 mm